Time;durP1;ratioP1;P1;durP2;ratioP2;P2;SDS_P1;SDS_P2;PMS_P1;PMS_P2;Temp;Humidity;BMP_temperature;BMP_pressure;BME280_temperature;BME280_humidity;BME280_pressure;Samples;Min_cycle;Max_cycle;Signal;HPM_P1;HPM_P2
2022/01/30 00:00:16;;;;;;;0.10;0.10;;;;;;;;;;5037130;28;20043;-85
2022/01/30 00:02:42;;;;;;;0.10;0.10;;;;;;;;;;5036641;28;20052;-85
2022/01/30 00:05:08;;;;;;;0.10;0.10;;;;;;;;;;5036916;28;20040;-85
2022/01/30 00:07:34;;;;;;;0.10;0.10;;;;;;;;;;5036574;28;20073;-86
2022/01/30 00:10:00;;;;;;;0.10;0.10;;;;;;;;;;5036401;28;20040;-85
2022/01/30 00:12:41;;;;;;;0.20;0.20;;;;;;;;;;5053214;28;20051;-86
2022/01/30 00:15:08;;;;;;;0.10;0.10;;;;;;;;;;5052927;28;20052;-85
2022/01/30 00:17:40;;;;;;;0.57;0.57;;;;;;;;;;5036596;28;20516;-86
2022/01/30 00:20:12;;;;;;;;;;;;;;;;;;5021091;28;20041;-85
2022/01/30 00:22:48;;;;;;;0.43;0.43;;;;;;;;;;5052799;28;20400;-85
2022/01/30 00:25:17;;;;;;;0.40;0.40;;;;;;;;;;5052892;28;20054;-86
2022/01/30 00:27:48;;;;;;;0.10;0.10;;;;;;;;;;5052674;28;20041;-86
2022/01/30 00:30:15;;;;;;;0.10;0.10;;;;;;;;;;5036932;28;20059;-86
2022/01/30 00:32:41;;;;;;;0.10;0.10;;;;;;;;;;5052693;28;20049;-86
2022/01/30 00:35:09;;;;;;;0.10;0.10;;;;;;;;;;5036099;28;20041;-85
2022/01/30 00:37:39;;;;;;;2.00;1.55;;;;;;;;;;5019509;28;20043;-85
2022/01/30 00:40:06;;;;;;;0.10;0.10;;;;;;;;;;5052956;28;20053;-85
2022/01/30 00:42:32;;;;;;;0.10;0.10;;;;;;;;;;5035893;28;20107;-85
2022/01/30 00:44:58;;;;;;;0.22;0.17;;;;;;;;;;5052432;28;20059;-86
2022/01/30 00:47:24;;;;;;;0.65;0.17;;;;;;;;;;5052194;28;20132;-86
2022/01/30 00:49:50;;;;;;;0.10;0.10;;;;;;;;;;5052097;28;20049;-86
2022/01/30 00:52:17;;;;;;;0.10;0.10;;;;;;;;;;5019377;28;20123;-85
2022/01/30 00:54:43;;;;;;;1.15;1.05;;;;;;;;;;5035928;28;20036;-85
2022/01/30 00:57:09;;;;;;;0.35;0.35;;;;;;;;;;5019143;28;20041;-85
2022/01/30 00:59:35;;;;;;;0.38;0.38;;;;;;;;;;5052245;28;20182;-85
2022/01/30 01:02:01;;;;;;;0.10;0.10;;;;;;;;;;5035822;28;20140;-84
2022/01/30 01:04:27;;;;;;;0.10;0.10;;;;;;;;;;5052056;28;20105;-85
2022/01/30 01:06:53;;;;;;;0.10;0.10;;;;;;;;;;5035461;28;20041;-85
2022/01/30 01:09:23;;;;;;;0.10;0.10;;;;;;;;;;5051677;28;20041;-85
2022/01/30 01:25:19;;;;;;;0.10;0.10;;;;;;;;;;5051792;28;20201;-85
2022/01/30 01:27:45;;;;;;;0.75;0.20;;;;;;;;;;5051510;28;20056;-84
2022/01/30 01:30:11;;;;;;;0.10;0.10;;;;;;;;;;5051819;28;20150;-84
2022/01/30 01:32:37;;;;;;;0.10;0.10;;;;;;;;;;5051631;28;20071;-84
2022/01/30 01:35:03;;;;;;;0.10;0.10;;;;;;;;;;5018487;28;20041;-84
2022/01/30 01:37:29;;;;;;;0.88;0.28;;;;;;;;;;5051845;28;20033;-85
2022/01/30 01:39:55;;;;;;;0.17;0.17;;;;;;;;;;5034855;28;20618;-85
2022/01/30 01:42:23;;;;;;;0.10;0.10;;;;;;;;;;5051162;28;20411;-85
2022/01/30 01:44:53;;;;;;;2.55;2.38;;;;;;;;;;5034586;28;20146;-85
2022/01/30 01:47:21;;;;;;;3.83;0.35;;;;;;;;;;5051018;28;20053;-85
2022/01/30 01:49:50;;;;;;;0.10;0.10;;;;;;;;;;5051509;28;20486;-85
2022/01/30 01:54:42;;;;;;;0.10;0.10;;;;;;;;;;5034509;28;20048;-85
2022/01/30 01:57:08;;;;;;;0.30;0.30;;;;;;;;;;5034716;28;20068;-84
2022/01/30 01:59:34;;;;;;;0.10;0.10;;;;;;;;;;5051061;28;20141;-85
2022/01/30 02:02:01;;;;;;;0.35;0.35;;;;;;;;;;5050818;28;20140;-85
2022/01/30 02:04:28;;;;;;;0.10;0.10;;;;;;;;;;5051076;28;20178;-85
2022/01/30 02:07:04;;;;;;;2.35;0.32;;;;;;;;;;5034403;28;20098;-85
2022/01/30 02:09:32;;;;;;;0.47;0.47;;;;;;;;;;5051116;28;20064;-85
2022/01/30 02:12:00;;;;;;;0.52;0.40;;;;;;;;;;5067470;28;20087;-85
2022/01/30 02:25:39;;;;;;;2.65;0.55;;;;;;;;;;5050876;28;20045;-85
2022/01/30 02:28:15;;;;;;;0.10;0.10;;;;;;;;;;5050281;28;20546;-85
2022/01/30 02:30:47;;;;;;;0.10;0.10;;;;;;;;;;5018826;28;20083;-85
2022/01/30 02:33:13;;;;;;;0.10;0.10;;;;;;;;;;5035257;28;20404;-85
2022/01/30 02:35:39;;;;;;;0.10;0.10;;;;;;;;;;5050355;28;20033;-85
2022/01/30 02:38:05;;;;;;;0.10;0.10;;;;;;;;;;5033999;28;20045;-85
2022/01/30 02:40:35;;;;;;;0.10;0.10;;;;;;;;;;5050298;28;20127;-85
2022/01/30 02:43:02;;;;;;;0.20;0.20;;;;;;;;;;5050742;28;20053;-85
2022/01/30 02:45:31;;;;;;;0.80;0.30;;;;;;;;;;5034063;28;20484;-86
2022/01/30 02:50:36;;;;;;;0.10;0.10;;;;;;;;;;5050392;28;20099;-86
2022/01/30 02:53:05;;;;;;;0.10;0.10;;;;;;;;;;5050288;28;20033;-86
2022/01/30 02:55:31;;;;;;;0.20;0.20;;;;;;;;;;5017771;28;20048;-86
2022/01/30 02:57:57;;;;;;;0.10;0.10;;;;;;;;;;5054531;28;20041;-86
2022/01/30 03:00:23;;;;;;;0.00;0.00;;;;;;;;;;5038016;28;20040;-86
2022/01/30 03:02:49;;;;;;;0.10;0.10;;;;;;;;;;5037796;28;20084;-86
2022/01/30 03:05:15;;;;;;;0.10;0.10;;;;;;;;;;5037753;28;20044;-85
2022/01/30 03:07:40;;;;;;;0.28;0.28;;;;;;;;;;5054114;28;20041;-86
2022/01/30 03:10:07;;;;;;;0.10;0.10;;;;;;;;;;5054071;28;20065;-85
2022/01/30 03:12:33;;;;;;;14.30;1.80;;;;;;;;;;5054269;28;20460;-85
2022/01/30 03:14:58;;;;;;;0.10;0.10;;;;;;;;;;5054089;28;20068;-86
2022/01/30 03:17:24;;;;;;;0.10;0.10;;;;;;;;;;5054103;28;20041;-86
2022/01/30 03:19:50;;;;;;;0.68;0.68;;;;;;;;;;5054271;28;20049;-86
2022/01/30 03:22:17;;;;;;;0.10;0.10;;;;;;;;;;5054056;28;20071;-85
2022/01/30 03:24:42;;;;;;;0.85;0.30;;;;;;;;;;5020690;28;20041;-85
2022/01/30 03:27:11;;;;;;;0.40;0.40;;;;;;;;;;5037258;28;20396;-85
2022/01/30 03:29:38;;;;;;;0.10;0.10;;;;;;;;;;5053612;28;20124;-85
2022/01/30 03:32:04;;;;;;;5.95;0.45;;;;;;;;;;5037335;28;20386;-85
2022/01/30 03:34:30;;;;;;;0.10;0.10;;;;;;;;;;5037264;28;20132;-85
2022/01/30 03:36:56;;;;;;;0.28;0.28;;;;;;;;;;5053637;28;20131;-86
2022/01/30 03:39:22;;;;;;;0.10;0.10;;;;;;;;;;5037202;28;20060;-85
2022/01/30 03:41:48;;;;;;;0.10;0.10;;;;;;;;;;5036814;28;20121;-85
2022/01/30 03:44:14;;;;;;;0.10;0.10;;;;;;;;;;5054709;28;20121;-85
2022/01/30 03:46:40;;;;;;;0.10;0.10;;;;;;;;;;5036647;28;20060;-86
2022/01/30 03:49:06;;;;;;;0.10;0.10;;;;;;;;;;5054741;28;20452;-86
2022/01/30 03:51:32;;;;;;;0.10;0.10;;;;;;;;;;5036790;28;20048;-86
2022/01/30 03:53:58;;;;;;;0.75;0.75;;;;;;;;;;5020328;28;20485;-86
2022/01/30 03:56:24;;;;;;;0.20;0.15;;;;;;;;;;5053632;28;20048;-85
2022/01/30 03:58:50;;;;;;;0.10;0.10;;;;;;;;;;5036652;28;20060;-85
2022/01/30 04:01:16;;;;;;;0.20;0.20;;;;;;;;;;5053210;28;20484;-84
2022/01/30 04:03:42;;;;;;;0.10;0.10;;;;;;;;;;5053028;28;20115;-85
2022/01/30 04:06:09;;;;;;;6.25;1.85;;;;;;;;;;5036663;28;20412;-85
2022/01/30 04:08:35;;;;;;;0.17;0.17;;;;;;;;;;5036121;28;20536;-85
2022/01/30 04:11:01;;;;;;;0.10;0.10;;;;;;;;;;5036581;28;20148;-86
2022/01/30 04:13:27;;;;;;;1.95;1.05;;;;;;;;;;5020148;28;20070;-85
2022/01/30 04:15:53;;;;;;;0.82;0.82;;;;;;;;;;5036548;28;20036;-86
2022/01/30 04:18:19;;;;;;;0.10;0.10;;;;;;;;;;5036373;28;20045;-86
2022/01/30 04:20:45;;;;;;;1.08;0.93;;;;;;;;;;5019828;28;20049;-85
2022/01/30 04:23:11;;;;;;;0.10;0.10;;;;;;;;;;5036266;28;20123;-85
2022/01/30 04:25:37;;;;;;;0.47;0.45;;;;;;;;;;5036133;28;20436;-84
2022/01/30 04:28:03;;;;;;;0.30;0.30;;;;;;;;;;5052795;28;20043;-84
2022/01/30 04:30:29;;;;;;;0.55;0.30;;;;;;;;;;5036280;28;20037;-85
2022/01/30 04:32:55;;;;;;;0.45;0.45;;;;;;;;;;5052552;28;20043;-85
2022/01/30 04:35:26;;;;;;;0.55;0.40;;;;;;;;;;5052746;28;20041;-84
2022/01/30 04:59:40;;;;;;;0.10;0.10;;;;;;;;;;5038466;28;20126;-85
2022/01/30 05:02:09;;;;;;;0.10;0.10;;;;;;;;;;5052227;28;20053;-86
2022/01/30 05:09:33;;;;;;;0.30;0.30;;;;;;;;;;5052017;28;20047;-85
2022/01/30 05:11:59;;;;;;;7.10;0.43;;;;;;;;;;5018994;28;20044;-85
2022/01/30 05:14:32;;;;;;;0.43;0.43;;;;;;;;;;5019084;28;20041;-85
2022/01/30 05:16:58;;;;;;;0.10;0.10;;;;;;;;;;5051875;28;20052;-85
2022/01/30 05:19:24;;;;;;;0.13;0.13;;;;;;;;;;5050776;28;20040;-86
2022/01/30 05:21:50;;;;;;;2.10;2.00;;;;;;;;;;5035286;28;20120;-85
2022/01/30 05:24:16;;;;;;;4.05;0.73;;;;;;;;;;5051698;28;20041;-85
2022/01/30 05:26:43;;;;;;;0.10;0.10;;;;;;;;;;5051439;28;20504;-86
2022/01/30 05:29:09;;;;;;;0.30;0.30;;;;;;;;;;5035086;28;20128;-86
2022/01/30 05:31:35;;;;;;;0.10;0.10;;;;;;;;;;5051526;28;20079;-85
2022/01/30 05:34:01;;;;;;;0.10;0.10;;;;;;;;;;5018718;28;20049;-85
2022/01/30 05:36:27;;;;;;;1.00;1.00;;;;;;;;;;5034909;28;20033;-85
2022/01/30 05:38:53;;;;;;;0.13;0.13;;;;;;;;;;5034908;28;20106;-86
2022/01/30 05:41:20;;;;;;;2.75;1.23;;;;;;;;;;5051341;28;20048;-85
2022/01/30 05:43:50;;;;;;;0.10;0.10;;;;;;;;;;5034617;28;20492;-86
2022/01/30 05:46:26;;;;;;;0.43;0.43;;;;;;;;;;5035605;28;20123;-86
2022/01/30 05:48:53;;;;;;;0.15;0.15;;;;;;;;;;5036324;28;20045;-86
2022/01/30 05:51:18;;;;;;;0.17;0.17;;;;;;;;;;5034875;28;20499;-86
2022/01/30 05:53:44;;;;;;;0.25;0.25;;;;;;;;;;5051143;28;20040;-87
2022/01/30 05:56:12;;;;;;;0.57;0.57;;;;;;;;;;5050946;28;20055;-86
2022/01/30 05:58:38;;;;;;;0.40;0.30;;;;;;;;;;5018119;28;20051;-87
2022/01/30 06:01:04;;;;;;;0.10;0.10;;;;;;;;;;5018730;28;20175;-86
2022/01/30 06:03:30;;;;;;;1.88;0.52;;;;;;;;;;5017979;28;20384;-87
2022/01/30 06:05:56;;;;;;;2.92;0.28;;;;;;;;;;5034397;28;20051;-86
2022/01/30 06:11:14;;;;;;;0.10;0.10;;;;;;;;;;5022708;28;20044;-87
2022/01/30 06:13:40;;;;;;;2.65;0.50;;;;;;;;;;5034097;28;20045;-87
2022/01/30 06:16:06;;;;;;;2.75;0.82;;;;;;;;;;5034088;28;20032;-86
2022/01/30 06:18:32;;;;;;;0.10;0.10;;;;;;;;;;5034614;28;20041;-86
2022/01/30 06:20:58;;;;;;;0.90;0.52;;;;;;;;;;5034175;28;20041;-87
2022/01/30 06:23:27;;;;;;;5.93;1.00;;;;;;;;;;5050421;28;20051;-86
2022/01/30 06:25:53;;;;;;;0.50;0.50;;;;;;;;;;5050489;28;20093;-86
2022/01/30 06:28:19;;;;;;;0.10;0.10;;;;;;;;;;5017740;28;20048;-86
2022/01/30 06:30:45;;;;;;;0.88;0.88;;;;;;;;;;5017536;28;20041;-87
2022/01/30 06:33:11;;;;;;;0.20;0.20;;;;;;;;;;5050406;28;20045;-87
2022/01/30 06:35:37;;;;;;;0.10;0.10;;;;;;;;;;5034077;28;20238;-87
2022/01/30 06:38:03;;;;;;;0.10;0.10;;;;;;;;;;5033908;28;20040;-87
2022/01/30 06:40:29;;;;;;;0.30;0.30;;;;;;;;;;5017936;28;20029;-86
2022/01/30 06:42:55;;;;;;;0.10;0.10;;;;;;;;;;5033904;28;20527;-86
2022/01/30 06:45:21;;;;;;;0.10;0.10;;;;;;;;;;5050318;28;20074;-85
2022/01/30 06:47:47;;;;;;;0.10;0.10;;;;;;;;;;5050450;28;20048;-86
2022/01/30 06:50:13;;;;;;;0.10;0.10;;;;;;;;;;5050291;28;20124;-86
2022/01/30 06:52:39;;;;;;;1.25;0.82;;;;;;;;;;5033650;28;20069;-87
2022/01/30 06:55:05;;;;;;;1.08;0.30;;;;;;;;;;5034060;28;20095;-86
2022/01/30 06:57:31;;;;;;;0.65;0.65;;;;;;;;;;5017352;28;20037;-86
2022/01/30 06:59:57;;;;;;;0.10;0.10;;;;;;;;;;5034031;28;20136;-85
2022/01/30 07:02:23;;;;;;;0.10;0.10;;;;;;;;;;5050144;28;20041;-86
2022/01/30 07:04:49;;;;;;;0.55;0.38;;;;;;;;;;5033681;28;20074;-86
2022/01/30 07:07:15;;;;;;;0.10;0.10;;;;;;;;;;5050321;28;20131;-86
2022/01/30 07:09:41;;;;;;;0.10;0.10;;;;;;;;;;5050106;28;20041;-85
2022/01/30 07:12:07;;;;;;;0.35;0.35;;;;;;;;;;5050188;28;20033;-86
2022/01/30 07:14:33;;;;;;;0.35;0.10;;;;;;;;;;5050160;28;20476;-85
2022/01/30 07:16:59;;;;;;;0.40;0.40;;;;;;;;;;5033496;28;20493;-86
2022/01/30 07:19:25;;;;;;;0.20;0.20;;;;;;;;;;5050022;28;20044;-86
2022/01/30 07:21:52;;;;;;;0.20;0.20;;;;;;;;;;5016879;28;20072;-86
2022/01/30 07:24:18;;;;;;;0.10;0.10;;;;;;;;;;5033655;28;20080;-86
2022/01/30 07:26:43;;;;;;;0.10;0.10;;;;;;;;;;5050240;28;20095;-85
2022/01/30 07:29:09;;;;;;;0.10;0.10;;;;;;;;;;5033693;28;20048;-86
2022/01/30 07:31:35;;;;;;;0.10;0.10;;;;;;;;;;5050182;28;20499;-85
2022/01/30 07:34:01;;;;;;;0.10;0.10;;;;;;;;;;5033538;28;20033;-86
2022/01/30 07:36:28;;;;;;;0.20;0.20;;;;;;;;;;5049660;28;20492;-86
2022/01/30 07:38:54;;;;;;;0.10;0.10;;;;;;;;;;5016994;28;20080;-85
2022/01/30 07:41:20;;;;;;;0.10;0.10;;;;;;;;;;5016993;28;20045;-85
2022/01/30 07:43:46;;;;;;;0.10;0.10;;;;;;;;;;5053324;28;20055;-85
2022/01/30 07:46:12;;;;;;;0.20;0.20;;;;;;;;;;5037288;28;20135;-84
2022/01/30 07:48:38;;;;;;;0.47;0.47;;;;;;;;;;5070097;28;20562;-85
2022/01/30 07:51:05;;;;;;;0.65;0.65;;;;;;;;;;5053362;28;20098;-86
2022/01/30 07:53:31;;;;;;;0.20;0.20;;;;;;;;;;5053572;28;20397;-86
2022/01/30 07:55:57;;;;;;;0.13;0.13;;;;;;;;;;5053386;28;20033;-86
2022/01/30 07:58:23;;;;;;;2.55;0.32;;;;;;;;;;5036874;28;20052;-86
2022/01/30 08:00:49;;;;;;;0.65;0.65;;;;;;;;;;5020381;28;20045;-85
2022/01/30 08:03:15;;;;;;;0.55;0.55;;;;;;;;;;5020541;28;20036;-86
2022/01/30 08:05:41;;;;;;;0.10;0.10;;;;;;;;;;5020332;28;20041;-85
2022/01/30 08:08:07;;;;;;;0.10;0.10;;;;;;;;;;5036677;28;20404;-86
2022/01/30 08:10:33;;;;;;;0.30;0.30;;;;;;;;;;5053364;28;20064;-84
2022/01/30 08:12:59;;;;;;;0.10;0.10;;;;;;;;;;5036521;28;20067;-85
2022/01/30 08:15:25;;;;;;;0.10;0.10;;;;;;;;;;5052936;28;20078;-85
2022/01/30 08:17:51;;;;;;;0.20;0.20;;;;;;;;;;5052939;28;20045;-86
2022/01/30 08:20:18;;;;;;;0.32;0.32;;;;;;;;;;5052957;28;20513;-84
2022/01/30 08:22:48;;;;;;;0.65;0.65;;;;;;;;;;5052801;28;20064;-85
2022/01/30 08:25:13;;;;;;;0.10;0.10;;;;;;;;;;5036324;28;20045;-84
2022/01/30 08:27:39;;;;;;;0.10;0.10;;;;;;;;;;5052955;28;20060;-86
2022/01/30 08:30:06;;;;;;;0.20;0.20;;;;;;;;;;5036221;28;20520;-85
2022/01/30 08:32:32;;;;;;;0.20;0.20;;;;;;;;;;5036289;28;20389;-86
2022/01/30 08:34:58;;;;;;;0.40;0.40;;;;;;;;;;5036048;28;20571;-85
2022/01/30 08:37:24;;;;;;;0.10;0.10;;;;;;;;;;5052611;28;20033;-87
2022/01/30 08:39:50;;;;;;;0.10;0.10;;;;;;;;;;5052530;28;20041;-85
2022/01/30 08:42:16;;;;;;;0.63;0.60;;;;;;;;;;5052532;28;20205;-86
2022/01/30 08:44:41;;;;;;;0.10;0.10;;;;;;;;;;5036133;28;20051;-87
2022/01/30 08:47:07;;;;;;;0.10;0.10;;;;;;;;;;5052276;28;20069;-89
2022/01/30 08:49:33;;;;;;;0.10;0.10;;;;;;;;;;5019553;28;20048;-87
2022/01/30 08:51:59;;;;;;;0.10;0.10;;;;;;;;;;5019651;28;20041;-87
2022/01/30 08:54:25;;;;;;;0.10;0.10;;;;;;;;;;5035712;28;20041;-86
2022/01/30 08:56:51;;;;;;;0.30;0.30;;;;;;;;;;5052466;28;20033;-88
2022/01/30 08:59:17;;;;;;;0.82;0.82;;;;;;;;;;5035646;28;20041;-87
2022/01/30 09:01:43;;;;;;;0.10;0.10;;;;;;;;;;5019192;28;20381;-87
2022/01/30 09:04:11;;;;;;;0.55;0.20;;;;;;;;;;5035537;28;20037;-87
2022/01/30 09:06:38;;;;;;;0.10;0.10;;;;;;;;;;5019600;28;20044;-89
2022/01/30 09:09:05;;;;;;;1.75;1.75;;;;;;;;;;5035994;28;20048;-94
2022/01/30 09:11:32;;;;;;;0.10;0.10;;;;;;;;;;5019909;28;20044;-93
2022/01/30 09:13:58;;;;;;;0.20;0.20;;;;;;;;;;5019539;28;20041;-91
2022/01/30 09:16:24;;;;;;;0.50;0.50;;;;;;;;;;5035723;28;20183;-91
2022/01/30 09:18:50;;;;;;;0.10;0.10;;;;;;;;;;5019167;28;20341;-91
2022/01/30 09:21:16;;;;;;;0.52;0.52;;;;;;;;;;5035317;28;20087;-90
2022/01/30 09:23:42;;;;;;;0.20;0.20;;;;;;;;;;5035387;28;20408;-93
2022/01/30 09:26:08;;;;;;;0.10;0.10;;;;;;;;;;5019634;28;20044;-92
2022/01/30 09:28:34;;;;;;;0.52;0.28;;;;;;;;;;5019525;28;20037;-93
2022/01/30 09:31:00;;;;;;;1.75;0.35;;;;;;;;;;5019078;28;20094;-92
2022/01/30 09:33:26;;;;;;;0.10;0.10;;;;;;;;;;5035301;28;20037;-91
2022/01/30 09:35:52;;;;;;;2.55;0.30;;;;;;;;;;5018590;28;20037;-91
2022/01/30 09:38:18;;;;;;;0.10;0.10;;;;;;;;;;5035072;28;20063;-90
2022/01/30 09:40:44;;;;;;;0.22;0.22;;;;;;;;;;5018581;28;20037;-89
2022/01/30 09:43:10;;;;;;;0.20;0.20;;;;;;;;;;5019309;28;20041;-92
2022/01/30 09:45:36;;;;;;;0.10;0.10;;;;;;;;;;5018989;28;20211;-93
2022/01/30 09:48:02;;;;;;;0.28;0.28;;;;;;;;;;5018544;28;20080;-90
2022/01/30 09:50:28;;;;;;;0.17;0.17;;;;;;;;;;5018453;28;20037;-90
2022/01/30 09:52:56;;;;;;;0.10;0.10;;;;;;;;;;5034525;28;20061;-87
2022/01/30 09:55:22;;;;;;;0.10;0.10;;;;;;;;;;5029337;28;20100;-88
2022/01/30 09:57:48;;;;;;;1.05;1.05;;;;;;;;;;5031223;28;20067;-87
2022/01/30 10:00:17;;;;;;;0.47;0.43;;;;;;;;;;5050024;28;20098;-87
2022/01/30 10:02:43;;;;;;;0.65;0.20;;;;;;;;;;5034152;28;20047;-87
2022/01/30 10:05:11;;;;;;;0.10;0.10;;;;;;;;;;5050360;28;20041;-86
2022/01/30 10:07:44;;;;;;;0.10;0.10;;;;;;;;;;5050832;28;20045;-86
2022/01/30 10:10:11;;;;;;;0.10;0.10;;;;;;;;;;5050201;28;20049;-88
2022/01/30 10:12:37;;;;;;;0.10;0.10;;;;;;;;;;5017592;28;20186;-86
2022/01/30 10:15:10;;;;;;;0.10;0.10;;;;;;;;;;5017948;28;20033;-86
2022/01/30 10:17:36;;;;;;;1.00;0.28;;;;;;;;;;5050537;28;20045;-86
2022/01/30 10:20:02;;;;;;;2.63;0.35;;;;;;;;;;5050342;28;20061;-85
2022/01/30 10:22:28;;;;;;;0.10;0.10;;;;;;;;;;5033922;28;20062;-86
2022/01/30 10:24:54;;;;;;;0.25;0.25;;;;;;;;;;5033916;28;20041;-86
2022/01/30 10:27:25;;;;;;;0.20;0.20;;;;;;;;;;5033537;28;20080;-86
2022/01/30 10:30:01;;;;;;;0.55;0.40;;;;;;;;;;5017457;28;20048;-85
2022/01/30 10:32:27;;;;;;;0.10;0.10;;;;;;;;;;5017268;28;20209;-86
2022/01/30 10:35:03;;;;;;;0.10;0.10;;;;;;;;;;5017206;28;20476;-85
2022/01/30 10:37:29;;;;;;;0.20;0.20;;;;;;;;;;5033416;28;20119;-86
2022/01/30 10:40:00;;;;;;;1.08;0.85;;;;;;;;;;5033646;28;20040;-87
2022/01/30 10:42:49;;;;;;;0.10;0.10;;;;;;;;;;5016996;28;20487;-86
2022/01/30 10:45:22;;;;;;;1.20;0.95;;;;;;;;;;5037937;28;20051;-86
2022/01/30 10:47:47;;;;;;;0.10;0.10;;;;;;;;;;5050062;28;20052;-86
2022/01/30 10:50:15;;;;;;;6.93;0.70;;;;;;;;;;5033109;28;20076;-85
2022/01/30 10:52:55;;;;;;;0.70;0.40;;;;;;;;;;5033375;28;20148;-86
2022/01/30 10:55:53;;;;;;;0.55;0.20;;;;;;;;;;5033584;28;20045;-86
2022/01/30 10:58:20;;;;;;;0.10;0.10;;;;;;;;;;4996413;28;20045;-86
2022/01/30 11:00:51;;;;;;;0.40;0.35;;;;;;;;;;5033726;28;20384;-86
2022/01/30 11:03:36;;;;;;;0.20;0.20;;;;;;;;;;5017021;28;20041;-89
2022/01/30 11:06:02;;;;;;;0.30;0.30;;;;;;;;;;5049931;28;20048;-84
2022/01/30 11:08:31;;;;;;;0.10;0.10;;;;;;;;;;5033224;28;20041;-85
2022/01/30 11:11:14;;;;;;;0.55;0.52;;;;;;;;;;5017099;28;20045;-86
2022/01/30 11:13:59;;;;;;;0.10;0.10;;;;;;;;;;5017813;28;20040;-84
2022/01/30 11:19:10;;;;;;;0.10;0.10;;;;;;;;;;5040565;28;20049;-85
2022/01/30 11:21:36;;;;;;;4.05;0.85;;;;;;;;;;5054138;28;20437;-84
2022/01/30 11:24:02;;;;;;;0.20;0.20;;;;;;;;;;5020850;28;20132;-85
2022/01/30 11:26:28;;;;;;;0.20;0.20;;;;;;;;;;5037215;28;20048;-85
2022/01/30 11:28:54;;;;;;;0.20;0.20;;;;;;;;;;5020716;28;20382;-86
2022/01/30 11:31:20;;;;;;;0.10;0.10;;;;;;;;;;5037464;28;20127;-85
2022/01/30 11:33:46;;;;;;;0.40;0.40;;;;;;;;;;5053586;28;20048;-85
2022/01/30 11:36:12;;;;;;;0.10;0.10;;;;;;;;;;5020505;28;20396;-85
2022/01/30 11:38:38;;;;;;;0.85;0.85;;;;;;;;;;5036934;28;20044;-86
2022/01/30 11:41:11;;;;;;;0.10;0.10;;;;;;;;;;5053685;28;20087;-85
2022/01/30 11:43:37;;;;;;;;;;;;;;;;;;5054107;28;20041;-85
2022/01/30 11:46:15;;;;;;;0.43;0.43;;;;;;;;;;5053588;28;20367;-85
2022/01/30 11:48:41;;;;;;;0.20;0.20;;;;;;;;;;5036470;28;20069;-85
2022/01/30 11:51:08;;;;;;;0.10;0.10;;;;;;;;;;5053614;28;20469;-85
2022/01/30 11:53:33;;;;;;;0.10;0.10;;;;;;;;;;5053534;28;20369;-85
2022/01/30 11:56:00;;;;;;;0.95;0.95;;;;;;;;;;5053166;28;20044;-86
2022/01/30 11:58:33;;;;;;;1.45;1.30;;;;;;;;;;5053826;28;20040;-86
2022/01/30 12:00:59;;;;;;;4.47;0.82;;;;;;;;;;5053411;28;20451;-84
2022/01/30 12:03:26;;;;;;;0.60;0.45;;;;;;;;;;5036811;28;20120;-85
2022/01/30 12:05:52;;;;;;;0.63;0.20;;;;;;;;;;5053241;28;20041;-84
2022/01/30 12:08:37;;;;;;;0.10;0.10;;;;;;;;;;5052992;28;20053;-85
2022/01/30 12:11:03;;;;;;;0.20;0.20;;;;;;;;;;5053134;28;20484;-84
2022/01/30 12:13:44;;;;;;;0.60;0.52;;;;;;;;;;5052721;28;20037;-85
2022/01/30 12:16:30;;;;;;;1.45;1.35;;;;;;;;;;5036493;28;20133;-85
2022/01/30 12:18:56;;;;;;;0.45;0.45;;;;;;;;;;5053041;28;20077;-87
2022/01/30 12:21:23;;;;;;;1.90;0.30;;;;;;;;;;5053159;28;20072;-85
2022/01/30 12:23:49;;;;;;;0.28;0.28;;;;;;;;;;5052819;28;20120;-86
2022/01/30 12:26:15;;;;;;;0.10;0.10;;;;;;;;;;5053170;28;20087;-84
2022/01/30 12:28:48;;;;;;;0.35;0.35;;;;;;;;;;5052421;28;20472;-84
2022/01/30 12:31:23;;;;;;;0.10;0.10;;;;;;;;;;5052869;28;20098;-85
2022/01/30 12:33:49;;;;;;;0.20;0.20;;;;;;;;;;5052767;28;20083;-86
2022/01/30 12:36:16;;;;;;;0.10;0.10;;;;;;;;;;5052565;28;20069;-85
2022/01/30 12:38:43;;;;;;;0.10;0.10;;;;;;;;;;5052643;28;20048;-87
2022/01/30 12:41:13;;;;;;;0.10;0.10;;;;;;;;;;5052710;28;20076;-85
2022/01/30 12:43:39;;;;;;;0.88;0.82;;;;;;;;;;5036241;28;20384;-85
2022/01/30 12:46:05;;;;;;;0.20;0.20;;;;;;;;;;5052465;28;20040;-84
2022/01/30 12:48:31;;;;;;;1.30;1.30;;;;;;;;;;5052233;28;20487;-85
2022/01/30 12:51:03;;;;;;;0.20;0.20;;;;;;;;;;5035641;28;20052;-86
2022/01/30 12:53:29;;;;;;;0.90;0.43;;;;;;;;;;5036398;28;20040;-84
2022/01/30 12:55:55;;;;;;;0.10;0.10;;;;;;;;;;5052578;28;20124;-84
2022/01/30 12:58:21;;;;;;;0.10;0.10;;;;;;;;;;5052139;28;20491;-85
2022/01/30 13:00:47;;;;;;;0.20;0.20;;;;;;;;;;5052217;28;20041;-84
2022/01/30 13:03:18;;;;;;;0.10;0.10;;;;;;;;;;5053481;28;20174;-84
2022/01/30 13:05:44;;;;;;;0.10;0.10;;;;;;;;;;5068822;28;20041;-84
2022/01/30 13:08:10;;;;;;;0.20;0.20;;;;;;;;;;5052098;28;20075;-84
2022/01/30 13:10:36;;;;;;;0.10;0.10;;;;;;;;;;5051690;28;20127;-87
2022/01/30 13:13:04;;;;;;;0.60;0.43;;;;;;;;;;5035362;28;20498;-85
2022/01/30 13:15:34;;;;;;;0.30;0.20;;;;;;;;;;5052487;28;20045;-90
2022/01/30 13:18:00;;;;;;;0.20;0.20;;;;;;;;;;5052588;28;20052;-86
2022/01/30 13:20:27;;;;;;;0.63;0.63;;;;;;;;;;5051968;28;20032;-85
2022/01/30 13:22:53;;;;;;;0.22;0.22;;;;;;;;;;5051954;28;20033;-85
2022/01/30 13:25:19;;;;;;;0.15;0.15;;;;;;;;;;5051794;28;20388;-84
2022/01/30 13:27:47;;;;;;;0.15;0.15;;;;;;;;;;5051622;28;20044;-85
2022/01/30 13:30:19;;;;;;;0.68;0.47;;;;;;;;;;5051482;28;20044;-84
2022/01/30 13:32:45;;;;;;;6.43;0.65;;;;;;;;;;5051559;28;20056;-84
2022/01/30 13:35:12;;;;;;;3.53;0.38;;;;;;;;;;5051728;28;20053;-85
2022/01/30 13:37:38;;;;;;;0.10;0.10;;;;;;;;;;5051661;28;20402;-84
2022/01/30 13:40:23;;;;;;;0.10;0.10;;;;;;;;;;5050771;28;20045;-86
2022/01/30 13:48:03;;;;;;;0.35;0.35;;;;;;;;;;5051156;28;20061;-85
2022/01/30 13:50:39;;;;;;;0.20;0.20;;;;;;;;;;5051502;28;20045;-84
2022/01/30 13:53:06;;;;;;;2.55;0.38;;;;;;;;;;5051248;28;20045;-85
2022/01/30 13:55:33;;;;;;;5.38;0.35;;;;;;;;;;5051090;28;20044;-86
2022/01/30 13:57:59;;;;;;;0.32;0.15;;;;;;;;;;5051441;28;20060;-86
2022/01/30 14:00:28;;;;;;;0.20;0.20;;;;;;;;;;5034600;28;20191;-85
2022/01/30 14:02:55;;;;;;;1.60;0.60;;;;;;;;;;5034765;28;20045;-86
2022/01/30 14:05:40;;;;;;;0.10;0.10;;;;;;;;;;5051142;28;20056;-87
2022/01/30 14:08:09;;;;;;;3.63;0.47;;;;;;;;;;5050968;28;20122;-85
2022/01/30 14:10:35;;;;;;;0.10;0.10;;;;;;;;;;5051140;28;20037;-85
2022/01/30 14:13:03;;;;;;;0.10;0.10;;;;;;;;;;5051203;28;20043;-85
2022/01/30 14:15:29;;;;;;;0.10;0.10;;;;;;;;;;5051364;28;20045;-86
2022/01/30 14:18:12;;;;;;;0.10;0.10;;;;;;;;;;5051114;28;20039;-85
2022/01/30 14:20:38;;;;;;;;;;;;;;;;;;5068028;28;20111;-86
2022/01/30 14:23:10;;;;;;;1.88;0.17;;;;;;;;;;5050901;28;20371;-86
2022/01/30 14:25:36;;;;;;;0.30;0.30;;;;;;;;;;5050905;28;20037;-87
2022/01/30 14:28:02;;;;;;;1.00;0.43;;;;;;;;;;5051140;28;20037;-86
2022/01/30 14:30:35;;;;;;;0.10;0.10;;;;;;;;;;5050815;28;20045;-85
2022/01/30 14:33:01;;;;;;;0.10;0.10;;;;;;;;;;5050966;28;20076;-87
2022/01/30 14:35:34;;;;;;;0.10;0.10;;;;;;;;;;5050629;28;20523;-86
2022/01/30 14:38:00;;;;;;;;;;;;;;;;;;5052532;28;20119;-87
2022/01/30 14:40:26;;;;;;;0.57;0.57;;;;;;;;;;5050633;28;20007;-85
2022/01/30 14:42:52;;;;;;;0.20;0.20;;;;;;;;;;5050611;28;20048;-87
2022/01/30 14:45:17;;;;;;;0.10;0.10;;;;;;;;;;5050617;28;20069;-86
2022/01/30 14:47:43;;;;;;;0.10;0.10;;;;;;;;;;5033791;28;20084;-87
2022/01/30 14:50:09;;;;;;;0.10;0.10;;;;;;;;;;5050433;28;20061;-87
2022/01/30 14:52:37;;;;;;;0.10;0.10;;;;;;;;;;5039925;28;20036;-85
2022/01/30 14:55:03;;;;;;;0.65;0.30;;;;;;;;;;5041224;28;20360;-87
2022/01/30 14:57:29;;;;;;;0.10;0.10;;;;;;;;;;5057347;28;20037;-86
2022/01/30 14:59:55;;;;;;;0.10;0.10;;;;;;;;;;5057064;28;20418;-86
2022/01/30 15:02:21;;;;;;;0.40;0.40;;;;;;;;;;5040366;28;20130;-86
2022/01/30 15:04:47;;;;;;;0.10;0.10;;;;;;;;;;5040563;28;20472;-87
2022/01/30 15:07:14;;;;;;;0.10;0.10;;;;;;;;;;5056910;28;20395;-88
2022/01/30 15:09:40;;;;;;;0.10;0.10;;;;;;;;;;5040494;28;20549;-85
2022/01/30 15:12:06;;;;;;;0.10;0.10;;;;;;;;;;5057012;28;20045;-85
2022/01/30 15:14:37;;;;;;;0.95;0.95;;;;;;;;;;5057027;28;20140;-85
2022/01/30 15:17:06;;;;;;;0.10;0.10;;;;;;;;;;5057714;28;20041;-87
2022/01/30 15:19:32;;;;;;;0.10;0.10;;;;;;;;;;5057672;28;20488;-87
2022/01/30 15:21:58;;;;;;;0.10;0.10;;;;;;;;;;5057173;28;20087;-86
2022/01/30 15:24:24;;;;;;;0.40;0.30;;;;;;;;;;5056957;28;20124;-84
2022/01/30 15:26:50;;;;;;;0.10;0.10;;;;;;;;;;5056942;28;20048;-88
2022/01/30 15:29:16;;;;;;;0.10;0.10;;;;;;;;;;5057903;28;20029;-85
2022/01/30 15:31:42;;;;;;;0.20;0.20;;;;;;;;;;5057043;28;20033;-86
2022/01/30 15:34:08;;;;;;;0.52;0.40;;;;;;;;;;5041721;28;20048;-86
2022/01/30 15:36:35;;;;;;;0.30;0.30;;;;;;;;;;5056978;28;20143;-86
2022/01/30 15:39:01;;;;;;;0.10;0.10;;;;;;;;;;5040240;28;20051;-87
2022/01/30 15:41:27;;;;;;;0.10;0.10;;;;;;;;;;5057021;28;20123;-86
2022/01/30 15:43:55;;;;;;;0.10;0.10;;;;;;;;;;5056707;28;20045;-88
2022/01/30 15:49:13;;;;;;;0.10;0.10;;;;;;;;;;5042695;28;20412;-84
2022/01/30 15:51:43;;;;;;;0.10;0.10;;;;;;;;;;5057884;28;20049;-87
2022/01/30 15:54:09;;;;;;;0.10;0.10;;;;;;;;;;5057049;28;20124;-86